createdAt,value
2018-07-23T00:00:02.784Z,83.7
2018-07-23T00:05:06.179Z,84.12
2018-07-23T00:10:03.581Z,84.38
2018-07-23T00:15:03.517Z,83.71
2018-07-23T00:20:05.663Z,84.31
2018-07-23T00:25:03.592Z,83.98
2018-07-23T00:30:03.300Z,84.51
2018-07-23T00:35:05.069Z,84.41
2018-07-23T00:40:03.002Z,84.27
2018-07-23T00:45:02.325Z,84.68
2018-07-23T00:50:06.070Z,84.66
2018-07-23T00:55:06.864Z,84.88
2018-07-23T01:00:03.039Z,85.08
2018-07-23T01:05:06.121Z,85.35
2018-07-23T01:10:05.294Z,85.92
2018-07-23T01:15:02.623Z,86.58
2018-07-23T01:20:05.877Z,86.44
2018-07-23T01:25:03.149Z,86.65
2018-07-23T01:30:02.357Z,87.49
2018-07-23T01:35:05.820Z,87.3
2018-07-23T01:40:03.762Z,87.85
2018-07-23T01:45:02.969Z,88.51
2018-07-23T01:50:03.874Z,88.39
2018-07-23T01:55:02.929Z,88.52
2018-07-23T02:00:02.160Z,88.5
2018-07-23T02:05:05.384Z,88.72
2018-07-23T02:10:03.415Z,88.91
2018-07-23T02:15:02.936Z,88.91
2018-07-23T02:20:06.038Z,88.88
2018-07-23T02:25:06.780Z,89.16
2018-07-23T02:30:07.511Z,89.1
2018-07-23T02:35:04.858Z,89.26
2018-07-23T02:40:08.178Z,89.93
2018-07-23T02:45:07.035Z,90.33
2018-07-23T02:50:04.947Z,90.36
2018-07-23T02:55:05.351Z,90.68
2018-07-23T03:00:03.373Z,90.94
2018-07-23T03:05:06.637Z,91.27
2018-07-23T03:10:05.973Z,91.64
2018-07-23T03:15:02.331Z,91.61
2018-07-23T03:20:04.910Z,91.71
2018-07-23T03:25:05.700Z,91.69
2018-07-23T03:30:03.097Z,91.58
2018-07-23T03:35:05.943Z,91.77
2018-07-23T03:40:02.979Z,91.87
2018-07-23T03:45:03.269Z,91.85
2018-07-23T03:50:05.197Z,91.73
2018-07-23T03:55:04.956Z,91.74
2018-07-23T04:00:02.345Z,92.1
2018-07-23T04:05:06.495Z,92.36
2018-07-23T04:10:07.288Z,92.48
2018-07-23T04:15:02.971Z,92.81
2018-07-23T04:20:05.407Z,92.73
2018-07-23T04:25:07.557Z,92.64
2018-07-23T04:30:03.300Z,92.81
2018-07-23T04:35:04.552Z,92.77
2018-07-23T04:40:08.653Z,92.58
2018-07-23T04:45:02.995Z,92.29
2018-07-23T04:50:07.064Z,92.46
2018-07-23T04:55:03.047Z,92.06
2018-07-23T05:00:02.274Z,91.08
2018-07-23T05:05:05.708Z,91.11
2018-07-23T05:10:05.941Z,91.61
2018-07-23T05:15:02.300Z,91.62
2018-07-23T05:20:05.506Z,92.19
2018-07-23T05:25:03.813Z,92.06
2018-07-23T05:30:02.908Z,91.74
2018-07-23T05:35:05.215Z,90.25
2018-07-23T05:40:03.065Z,89.51
2018-07-23T05:45:02.239Z,87.95
2018-07-23T05:50:05.430Z,86.37
2018-07-23T05:55:03.390Z,84.81
2018-07-23T06:00:02.548Z,84.61
2018-07-23T06:05:07.161Z,83.3
2018-07-23T06:10:02.967Z,83.55
2018-07-23T06:15:03.094Z,82.7
2018-07-23T06:20:05.004Z,82.65
2018-07-23T06:25:03.222Z,82.07
2018-07-23T06:30:03.388Z,81.85
2018-07-23T06:35:05.547Z,81.54
2018-07-23T06:40:03.575Z,78.73
2018-07-23T06:45:02.736Z,78.58
2018-07-23T06:50:06.476Z,76.78
2018-07-23T06:55:03.127Z,75.89
2018-07-23T07:00:05.429Z,72.22
2018-07-23T07:05:09.421Z,68.17
2018-07-23T07:10:06.841Z,67.78
2018-07-23T07:15:02.214Z,66.15
2018-07-23T07:20:05.585Z,63.37
2018-07-23T07:25:04.931Z,62.73
2018-07-23T07:30:04.118Z,65.37
2018-07-23T07:35:05.216Z,62.93
2018-07-23T07:40:06.066Z,63.92
2018-07-23T07:45:05.106Z,66.99
2018-07-23T07:50:05.120Z,65.96
2018-07-23T07:55:04.274Z,69.21
2018-07-23T08:00:04.498Z,68.36
2018-07-23T08:05:10.530Z,69.42
2018-07-23T08:10:16.326Z,69.4
2018-07-23T08:15:13.404Z,67.19
2018-07-23T08:20:13.599Z,66.15
2018-07-23T08:25:10.469Z,70.31
2018-07-23T08:30:05.681Z,64.75
2018-07-23T08:35:12.485Z,67.58
2018-07-23T08:40:12.923Z,64.8
2018-07-23T08:45:08.689Z,67.92
2018-07-23T08:50:11.865Z,65.25
2018-07-23T08:55:09.578Z,66.43
2018-07-23T09:10:01.469Z,66.51
2018-07-23T09:30:01.999Z,61.87
2018-07-23T09:40:01.668Z,61.11
2018-07-23T09:45:02.021Z,61.75
2018-07-23T09:50:02.379Z,59.91
2018-07-23T10:10:02.719Z,57.22
2018-07-23T10:20:01.194Z,56.65
2018-07-23T10:25:01.530Z,58.38
2018-07-23T10:30:01.782Z,58.02
2018-07-23T10:50:01.206Z,58.72
2018-07-23T10:55:01.455Z,58.33
2018-07-23T11:00:01.720Z,57.08
2018-07-23T11:05:02.063Z,57.66
2018-07-23T11:10:01.400Z,58.05
2018-07-23T11:15:01.648Z,55.58
2018-07-23T11:20:01.873Z,56.73
2018-07-23T11:25:40.665Z,54.85
2018-07-23T11:30:01.329Z,56.91
2018-07-23T11:35:01.602Z,56.34
2018-07-23T11:40:01.850Z,58.22
2018-07-23T11:45:02.134Z,58.55
2018-07-23T11:50:01.366Z,58.79
2018-07-23T11:55:01.657Z,59.22
2018-07-23T12:00:01.913Z,58.4
2018-07-23T12:05:01.261Z,56.29
2018-07-23T12:10:01.511Z,55.59
2018-07-23T12:20:01.388Z,55.63
2018-07-23T12:25:01.738Z,58.06
2018-07-23T12:30:01.974Z,55.66
2018-07-23T12:35:01.228Z,55.96
2018-07-23T12:40:01.602Z,56.2
2018-07-23T12:45:02.155Z,56.17
2018-07-23T12:50:01.392Z,55.85
2018-07-23T12:55:01.671Z,56.27
2018-07-23T13:00:02.104Z,56.92
2018-07-23T13:05:01.676Z,55.08
2018-07-23T13:10:01.925Z,55.59
2018-07-23T13:15:01.190Z,57.19
2018-07-23T13:20:01.522Z,53.35
2018-07-23T13:25:01.567Z,53.67
2018-07-23T13:30:01.860Z,52.71
2018-07-23T13:35:02.199Z,53.06
2018-07-23T13:40:01.438Z,55.38
2018-07-23T13:45:01.667Z,53.04
2018-07-23T13:50:01.921Z,53.76
2018-07-23T13:55:01.215Z,51.32
2018-07-23T14:00:01.469Z,52.3
2018-07-23T14:05:01.916Z,51.55
2018-07-23T14:10:01.183Z,51.48
2018-07-23T14:15:01.524Z,54.11
2018-07-23T14:20:01.907Z,52.97
2018-07-23T14:25:01.154Z,53.14
2018-07-23T14:30:01.384Z,53.03
2018-07-23T14:35:01.711Z,55.7
2018-07-23T14:40:01.945Z,54.32
2018-07-23T14:45:01.199Z,52.8
2018-07-23T14:50:01.439Z,52.42
2018-07-23T14:55:01.739Z,54.41
2018-07-23T15:00:01.988Z,53.15
2018-07-23T15:05:01.289Z,53.82
2018-07-23T15:10:01.605Z,53.87
2018-07-23T15:15:01.885Z,54.36
2018-07-23T15:20:01.161Z,56.93
2018-07-23T15:25:01.400Z,55.89
2018-07-23T15:30:01.653Z,55.54
2018-07-23T15:35:01.977Z,52.83
2018-07-23T15:40:01.266Z,52.76
2018-07-23T15:45:01.860Z,53.1
2018-07-23T15:50:01.347Z,56.19
2018-07-23T15:55:01.652Z,52.36
2018-07-23T16:00:01.879Z,51.44
2018-07-23T16:05:02.303Z,52.25
2018-07-23T16:10:01.688Z,51.91
2018-07-23T16:20:01.307Z,56.53
2018-07-23T16:25:01.684Z,54.26
2018-07-23T16:30:01.997Z,55.09
2018-07-23T16:35:01.293Z,53.06
2018-07-23T16:40:01.545Z,53
2018-07-23T16:45:01.815Z,56.18
2018-07-23T16:50:02.168Z,54.63
2018-07-23T16:55:01.397Z,56.4
2018-07-23T17:00:01.840Z,55.11
2018-07-23T17:05:01.221Z,56.31
2018-07-23T17:10:01.491Z,56.95
2018-07-23T17:15:01.766Z,59.71
2018-07-23T17:20:02.101Z,59.14
2018-07-23T17:25:01.323Z,57.59
2018-07-23T17:30:01.644Z,59.12
2018-07-23T17:35:01.905Z,62.07
2018-07-23T17:40:02.195Z,61.07
2018-07-23T17:45:01.766Z,62.31
2018-07-23T17:50:01.230Z,61.69
2018-07-23T17:55:01.555Z,59.81
2018-07-23T18:00:01.863Z,60.07
2018-07-23T18:05:01.180Z,60.54
2018-07-23T18:10:01.527Z,60.78
2018-07-23T18:15:01.903Z,61.18
2018-07-23T18:20:02.146Z,60.88
2018-07-23T18:25:01.449Z,62.5
2018-07-23T18:30:01.861Z,63.36
2018-07-23T18:35:02.102Z,61.52
2018-07-23T18:40:01.334Z,63.39
2018-07-23T18:45:01.559Z,62.07
2018-07-23T18:50:01.808Z,62.68
2018-07-23T18:55:02.036Z,63.71
2018-07-23T19:00:01.413Z,63.96
2018-07-23T19:05:01.951Z,64.9
2018-07-23T19:10:01.227Z,65.78
2018-07-23T19:15:01.457Z,66.26
2018-07-23T19:20:01.708Z,67.04
2018-07-23T19:25:01.947Z,67.28
2018-07-23T19:30:01.207Z,68.62
2018-07-23T19:35:01.445Z,70.68
2018-07-23T19:40:01.680Z,71.89
2018-07-23T19:45:01.949Z,72.33
2018-07-23T19:50:01.211Z,71.82
2018-07-23T19:55:01.442Z,71.42
2018-07-23T20:00:01.715Z,72.26
2018-07-23T20:05:02.269Z,72.38
2018-07-23T20:10:01.634Z,72.62
2018-07-23T20:15:02.069Z,71.69
2018-07-23T20:20:01.368Z,70.98
2018-07-23T20:25:01.688Z,70.73
2018-07-23T20:30:01.930Z,70.53
2018-07-23T20:35:01.278Z,70.71
2018-07-23T20:40:01.578Z,70.5
2018-07-23T20:45:01.914Z,70.95
2018-07-23T20:50:01.149Z,71.34
2018-07-23T20:55:01.376Z,71.89
2018-07-23T21:00:01.664Z,72.08
2018-07-23T21:05:02.179Z,72.42
2018-07-23T21:10:01.486Z,72.82
2018-07-23T21:15:01.885Z,72.88
2018-07-23T21:20:01.220Z,72.41
2018-07-23T21:25:01.535Z,72.51
2018-07-23T21:30:01.873Z,72.64
2018-07-23T21:35:02.224Z,72.72
2018-07-23T21:40:01.564Z,72.68
2018-07-23T21:45:01.820Z,72.61
2018-07-23T21:50:02.073Z,72.19
2018-07-23T21:55:01.299Z,71.99
2018-07-23T22:00:01.574Z,72.56
2018-07-23T22:05:02.069Z,73.24
2018-07-23T22:10:01.382Z,73.11
2018-07-23T22:15:01.658Z,73.27
2018-07-23T22:20:01.892Z,73.32
2018-07-23T22:25:02.159Z,73.14
2018-07-23T22:30:01.463Z,73.48
2018-07-23T22:35:01.863Z,74.37
2018-07-23T22:40:02.117Z,74.47
2018-07-23T22:45:01.380Z,74.78
2018-07-23T22:50:01.622Z,75.27
2018-07-23T22:55:01.869Z,75.63
2018-07-23T23:00:02.212Z,76.1
2018-07-23T23:05:01.451Z,78.49
2018-07-23T23:10:01.750Z,79
2018-07-23T23:15:01.982Z,78.46
2018-07-23T23:20:01.255Z,79.35
2018-07-23T23:25:01.515Z,80.19
2018-07-23T23:30:01.803Z,80.53
2018-07-23T23:35:02.180Z,81.6
2018-07-23T23:40:01.454Z,81.93
2018-07-23T23:45:01.745Z,83.34
2018-07-23T23:50:01.968Z,83.28
2018-07-23T23:55:01.235Z,83.04
